INFORMAÇÕES METEOROLÓGICAS
METAR FOR NZAA
ADDS - METARS form results

(2012 UTC 24 April 2019)
Data provider http://aviationweather.gov/metar/data/
 
METAR text: NZAA 242000Z AUTO 23006KT 9999 BKN022/// 16/15 Q1015 NOSIG
Conditions at: NZAA (AUCKLAND INTL AR, NZ) observed 2000 UTC 24 April 2019
Temperature: 16.0°C (61°F)
Dewpoint: 15.0°C (59°F) [RH = 94%]
Pressure (altimeter): 29.97 inches Hg (1015.0 mb)
Winds: from the SW (230 degrees) at 7 MPH (6 knots; 3.1 m/s)
Visibility: 6 or more miles (10+ km)
Ceiling: 2200 feet AGL
Clouds: broken clouds at 2200 feet AGL
Weather: no significant weather observed at this time

METAR text: NZAA 241930Z AUTO 22005KT 9999 BKN021/// 15/14 Q1015 NOSIG
Conditions at: NZAA (AUCKLAND INTL AR, NZ) observed 1930 UTC 24 April 2019
Temperature: 15.0°C (59°F)
Dewpoint: 14.0°C (57°F) [RH = 94%]
Pressure (altimeter): 29.97 inches Hg (1015.0 mb)
Winds: from the SW (220 degrees) at 6 MPH (5 knots; 2.6 m/s)
Visibility: 6 or more miles (10+ km)
Ceiling: 2100 feet AGL
Clouds: broken clouds at 2100 feet AGL
Weather: no significant weather observed at this time

Forecast for: NZAA (AUCKLAND INTL AR, NZ)
Text: TAF NZAA 241708Z 2418/2518 24012KT 9999 FEW014 SCT030
Forecast period: 1800 UTC 24 April 2019 to 1800 UTC 25 April 2019
Forecast type: FROM: standard forecast or significant change
Winds: from the WSW (240 degrees) at 14 MPH (12 knots; 6.2 m/s)
Visibility: 6 or more miles 10+ km)
Ceiling: at least 12,000 feet AGL
Clouds: few clouds at 1400 feet AGL
scattered clouds at 3000 feet AGL
Weather: no significant weather forecast for this period

 MAPA DO AEROPORTO

 INFORMAÇÕES DA PISTA
Pista 05L Tamanho da pista 10197 ft Largura da pista 148 ft
Elevação da pista 15 ft Ranhura da pista 1148 ft Proa da pista 71
Pista 23R Tamanho da pista 10197 ft Largura da pista 148 ft
Elevação da pista 22 ft Ranhura da pista 1542 ft Proa da pista 251
Pista 05R Tamanho da pista 11926 ft Largura da pista 148 ft
Elevação da pista 15 ft Ranhura da pista 1125 ft Proa da pista 72
Pista 23L Tamanho da pista 11926 ft Largura da pista 148 ft
Elevação da pista 23 ft Ranhura da pista 0 ft Proa da pista 252

 FREQUÊNCIAS DO AEROPORTO
Tipo APP Nome APP Frequência 124.3 MHZ
Tipo ATIS Nome ATIS Frequência 127.8 MHZ
Tipo CLD Nome CLNC DEL Frequência 128.2 MHZ
Tipo GND Nome GND Frequência 121.9 MHZ
Tipo TWR Nome TWR Frequência 118.7 MHZ

 AUXÍLIOS DE NAVEGAÇÃO PRÓXIMOS AO AEROPORTO
Tipo VOR-DME Nome Auckland Frequência 114800 KHZ
Tipo NDB Nome Whitford Frequência 334 KHZ
Tipo NDB Nome Westpoint Frequência 398 KHZ



Powered by Mercosul Lnhas Aereas